Time;durP1;ratioP1;P1;durP2;ratioP2;P2;SDS_P1;SDS_P2;PMS_P1;PMS_P2;Temp;Humidity;BMP_temperature;BMP_pressure;BME280_temperature;BME280_humidity;BME280_pressure;Samples;Min_cycle;Max_cycle;Signal;HPM_P1;HPM_P2
2023/04/20 14:29:42;;;;;;;0.40;0.40;;;;;;;;;;6996918;19;53211;-88
2023/04/20 14:32:08;;;;;;;0.30;0.30;;;;;;;;;;7389812;19;20145;-88
2023/04/20 14:34:35;;;;;;;0.30;0.30;;;;;;;;;;7393190;19;20152;-88
2023/04/20 14:37:02;;;;;;;0.50;0.40;;;;;;;;;;7394564;19;20145;-89
2023/04/20 14:39:29;;;;;;;0.53;0.53;;;;;;;;;;7394916;19;20165;-87
2023/04/20 14:41:56;;;;;;;0.30;0.30;;;;;;;;;;7393484;19;20141;-87
2023/04/20 14:44:22;;;;;;;0.50;0.50;;;;;;;;;;7389922;19;20192;-88
2023/04/20 14:46:49;;;;;;;0.40;0.40;;;;;;;;;;7395745;19;20133;-88
2023/04/20 14:49:16;;;;;;;0.57;0.57;;;;;;;;;;7395023;19;20149;-87
2023/04/20 14:51:43;;;;;;;0.40;0.40;;;;;;;;;;7396431;19;20137;-86
2023/04/20 14:54:09;;;;;;;0.30;0.30;;;;;;;;;;7391761;19;20188;-88
2023/04/20 14:56:36;;;;;;;0.53;0.53;;;;;;;;;;7395086;19;20145;-87
2023/04/20 14:59:03;;;;;;;0.40;0.40;;;;;;;;;;7394647;19;20121;-87
2023/04/20 15:01:29;;;;;;;0.30;0.30;;;;;;;;;;7395078;19;20134;-87
2023/04/20 15:03:56;;;;;;;0.40;0.40;;;;;;;;;;7387993;19;20237;-89
2023/04/20 15:06:23;;;;;;;0.77;0.57;;;;;;;;;;7401045;19;20146;-88
2023/04/20 15:08:52;;;;;;;0.47;0.47;;;;;;;;;;7401712;19;20156;-84
2023/04/20 15:11:18;;;;;;;3.10;1.63;;;;;;;;;;7401565;19;20137;-86
2023/04/20 15:13:45;;;;;;;0.40;0.40;;;;;;;;;;7400949;19;20141;-87
2023/04/20 15:16:12;;;;;;;0.37;0.37;;;;;;;;;;7395309;19;20274;-90
2023/04/20 15:18:39;;;;;;;0.50;0.50;;;;;;;;;;7392276;19;20136;-88
2023/04/20 15:21:07;;;;;;;0.47;0.47;;;;;;;;;;7394367;19;20129;-88
2023/04/20 15:23:33;;;;;;;0.57;0.57;;;;;;;;;;7390022;19;20174;-89
2023/04/20 15:26:00;;;;;;;0.40;0.40;;;;;;;;;;7390848;19;20652;-89
2023/04/20 15:28:26;;;;;;;1.00;0.87;;;;;;;;;;7392700;19;20157;-89
2023/04/20 15:30:53;;;;;;;0.47;0.47;;;;;;;;;;7392707;19;20246;-86
2023/04/20 15:33:20;;;;;;;0.87;0.87;;;;;;;;;;7391066;19;20169;-88
2023/04/20 15:35:47;;;;;;;0.50;0.50;;;;;;;;;;7393286;19;20152;-87
2023/04/20 15:38:13;;;;;;;0.30;0.30;;;;;;;;;;7391553;19;20163;-88
2023/04/20 15:40:40;;;;;;;0.47;0.47;;;;;;;;;;7392937;19;20133;-88
2023/04/20 15:43:07;;;;;;;0.43;0.43;;;;;;;;;;7390460;19;20650;-88
2023/04/20 15:45:33;;;;;;;0.30;0.30;;;;;;;;;;7391029;19;20687;-88
2023/04/20 15:48:00;;;;;;;0.40;0.40;;;;;;;;;;7388827;19;20121;-89
2023/04/20 15:50:26;;;;;;;0.83;0.80;;;;;;;;;;7392112;19;20208;-89
2023/04/20 15:52:53;;;;;;;0.50;0.50;;;;;;;;;;7393054;19;20145;-89
2023/04/20 15:55:20;;;;;;;0.30;0.30;;;;;;;;;;7387438;19;20136;-89
2023/04/20 15:57:46;;;;;;;0.30;0.30;;;;;;;;;;7392127;19;20158;-89
2023/04/20 16:00:13;;;;;;;0.57;0.57;;;;;;;;;;7387833;19;20528;-89
2023/04/20 16:02:40;;;;;;;0.30;0.30;;;;;;;;;;7390105;19;20149;-88
2023/04/20 16:05:08;;;;;;;0.83;0.63;;;;;;;;;;7392576;19;20141;-87
2023/04/20 16:07:34;;;;;;;0.50;0.50;;;;;;;;;;7390447;19;20621;-87
2023/04/20 16:10:01;;;;;;;0.30;0.30;;;;;;;;;;7388080;19;20225;-90
2023/04/20 16:12:28;;;;;;;0.80;0.80;;;;;;;;;;7389446;19;20170;-88
2023/04/20 16:14:56;;;;;;;0.40;0.40;;;;;;;;;;7387911;19;20145;-88
2023/04/20 16:17:22;;;;;;;0.30;0.30;;;;;;;;;;7388378;19;20138;-90
2023/04/20 16:19:49;;;;;;;0.53;0.53;;;;;;;;;;7392219;19;20128;-89
2023/04/20 16:22:16;;;;;;;0.30;0.30;;;;;;;;;;7390789;19;20495;-88
2023/04/20 16:24:43;;;;;;;0.50;0.50;;;;;;;;;;7391253;19;20156;-89
2023/04/20 16:27:09;;;;;;;0.57;0.57;;;;;;;;;;7390358;19;20140;-89
2023/04/20 16:29:36;;;;;;;0.40;0.40;;;;;;;;;;7391860;19;20165;-89
2023/04/20 16:32:03;;;;;;;0.70;0.67;;;;;;;;;;7391451;19;20144;-89
2023/04/20 16:34:30;;;;;;;1.50;1.17;;;;;;;;;;7390711;19;20133;-89
2023/04/20 16:36:57;;;;;;;0.60;0.60;;;;;;;;;;7392739;19;20136;-89
2023/04/20 16:39:23;;;;;;;0.60;0.60;;;;;;;;;;7390886;19;20216;-89
2023/04/20 16:41:50;;;;;;;0.40;0.40;;;;;;;;;;7391291;19;20156;-89
2023/04/20 16:44:17;;;;;;;0.50;0.50;;;;;;;;;;7412801;19;20184;-88
2023/04/20 16:46:48;;;;;;;0.67;0.63;;;;;;;;;;7408488;19;20125;-89
2023/04/20 16:49:15;;;;;;;0.87;0.87;;;;;;;;;;7391425;19;20182;-89
2023/04/20 16:51:41;;;;;;;0.57;0.57;;;;;;;;;;7392683;19;20149;-90
2023/04/20 16:54:10;;;;;;;0.30;0.30;;;;;;;;;;7390911;19;20148;-89
2023/04/20 16:56:37;;;;;;;0.77;0.77;;;;;;;;;;7391763;19;20133;-89
2023/04/20 16:59:03;;;;;;;0.43;0.43;;;;;;;;;;7393190;19;20165;-89
2023/04/20 17:01:30;;;;;;;0.40;0.40;;;;;;;;;;7391551;19;20137;-89
2023/04/20 17:03:58;;;;;;;0.30;0.30;;;;;;;;;;7389067;19;20149;-88
2023/04/20 17:06:26;;;;;;;0.20;0.20;;;;;;;;;;7389361;19;20140;-89
2023/04/20 17:08:54;;;;;;;0.30;0.30;;;;;;;;;;7389311;19;20149;-89
2023/04/20 17:11:21;;;;;;;0.30;0.30;;;;;;;;;;7390396;19;20136;-89
2023/04/20 17:13:48;;;;;;;0.30;0.30;;;;;;;;;;7390295;19;20168;-90
2023/04/20 17:16:14;;;;;;;0.30;0.30;;;;;;;;;;7391192;19;20651;-89
2023/04/20 17:18:41;;;;;;;0.30;0.30;;;;;;;;;;7391500;19;20137;-90
2023/04/20 17:21:07;;;;;;;0.30;0.30;;;;;;;;;;7389277;19;20154;-88
2023/04/20 17:23:34;;;;;;;0.20;0.20;;;;;;;;;;7389309;19;20148;-87
2023/04/20 17:26:02;;;;;;;0.30;0.30;;;;;;;;;;7388926;19;20137;-90
2023/04/20 17:28:29;;;;;;;0.30;0.30;;;;;;;;;;7388999;19;20136;-89
2023/04/20 17:30:55;;;;;;;0.47;0.47;;;;;;;;;;7390047;19;20156;-92
2023/04/20 17:33:22;;;;;;;0.40;0.40;;;;;;;;;;7385486;19;20152;-90
2023/04/20 17:35:49;;;;;;;0.40;0.40;;;;;;;;;;7389644;19;20487;-90
2023/04/20 17:38:15;;;;;;;0.43;0.43;;;;;;;;;;7387830;19;20129;-91
2023/04/20 17:40:42;;;;;;;0.30;0.30;;;;;;;;;;7386061;19;20137;-92
2023/04/20 17:43:09;;;;;;;0.30;0.30;;;;;;;;;;7386295;19;20152;-91
2023/04/20 17:45:35;;;;;;;0.40;0.40;;;;;;;;;;7389230;19;20149;-91
2023/04/20 17:48:02;;;;;;;0.33;0.33;;;;;;;;;;7386669;19;20129;-90
2023/04/20 17:50:29;;;;;;;0.30;0.30;;;;;;;;;;7388517;19;20141;-90
2023/04/20 17:52:56;;;;;;;0.40;0.40;;;;;;;;;;7386970;19;20622;-92
2023/04/20 17:55:22;;;;;;;0.30;0.30;;;;;;;;;;7393760;19;20145;-93
2023/04/20 17:57:49;;;;;;;0.30;0.30;;;;;;;;;;7391561;19;20133;-92
2023/04/20 18:00:17;;;;;;;0.30;0.30;;;;;;;;;;7386656;19;20214;-92
2023/04/20 18:02:44;;;;;;;0.50;0.50;;;;;;;;;;7386634;19;20168;-89
2023/04/20 18:05:11;;;;;;;0.40;0.40;;;;;;;;;;7382426;19;20133;-93
2023/04/20 18:07:37;;;;;;;0.30;0.30;;;;;;;;;;7387192;19;20125;-92
2023/04/20 18:10:05;;;;;;;0.37;0.37;;;;;;;;;;7388316;19;20141;-91
2023/04/20 18:12:32;;;;;;;0.30;0.30;;;;;;;;;;7385307;19;20160;-90
2023/04/20 18:14:59;;;;;;;0.30;0.30;;;;;;;;;;7385563;19;20133;-88
2023/04/20 18:17:26;;;;;;;0.30;0.30;;;;;;;;;;7383058;19;20487;-90
2023/04/20 18:19:52;;;;;;;0.27;0.27;;;;;;;;;;7382727;19;20629;-88
2023/04/20 18:22:19;;;;;;;0.30;0.30;;;;;;;;;;7385102;19;20493;-90
2023/04/20 18:24:46;;;;;;;0.20;0.20;;;;;;;;;;7383689;19;20133;-89
2023/04/20 18:27:12;;;;;;;0.30;0.30;;;;;;;;;;7383532;19;20521;-90
2023/04/20 18:29:39;;;;;;;0.30;0.30;;;;;;;;;;7382529;19;20153;-88
2023/04/20 18:32:05;;;;;;;0.30;0.30;;;;;;;;;;7387289;19;20149;-88
2023/04/20 18:34:32;;;;;;;0.30;0.30;;;;;;;;;;7388940;19;20121;-86
2023/04/20 18:36:59;;;;;;;0.30;0.30;;;;;;;;;;7386826;19;20141;-88
2023/04/20 18:39:25;;;;;;;0.30;0.30;;;;;;;;;;7397154;19;20153;-87
2023/04/20 18:41:52;;;;;;;0.30;0.30;;;;;;;;;;7396254;19;20160;-88
2023/04/20 18:44:19;;;;;;;0.30;0.30;;;;;;;;;;7393062;19;20179;-88
2023/04/20 18:46:46;;;;;;;0.30;0.30;;;;;;;;;;7396092;19;20213;-88
2023/04/20 18:49:12;;;;;;;0.30;0.30;;;;;;;;;;7394445;19;20137;-89
2023/04/20 18:51:39;;;;;;;0.30;0.30;;;;;;;;;;7396283;19;20599;-89
2023/04/20 18:54:06;;;;;;;0.63;0.63;;;;;;;;;;7393125;19;20144;-88
2023/04/20 18:56:32;;;;;;;0.20;0.20;;;;;;;;;;7397757;19;20144;-88
2023/04/20 18:59:00;;;;;;;0.20;0.20;;;;;;;;;;7398248;19;20141;-88
2023/04/20 19:01:27;;;;;;;0.30;0.30;;;;;;;;;;7397425;19;20137;-89
2023/04/20 19:03:54;;;;;;;0.30;0.30;;;;;;;;;;7393043;19;20182;-88
2023/04/20 19:06:21;;;;;;;0.30;0.30;;;;;;;;;;7396692;19;20133;-89
2023/04/20 19:08:49;;;;;;;0.30;0.30;;;;;;;;;;7394204;19;20121;-88
2023/04/20 19:11:15;;;;;;;0.30;0.30;;;;;;;;;;7390685;19;20157;-89
2023/04/20 19:13:44;;;;;;;0.30;0.30;;;;;;;;;;7392136;19;20137;-89
2023/04/20 19:16:11;;;;;;;0.30;0.30;;;;;;;;;;7395080;19;20133;-89
2023/04/20 19:18:38;;;;;;;0.30;0.30;;;;;;;;;;7395813;19;20165;-88
2023/04/20 19:21:05;;;;;;;0.30;0.30;;;;;;;;;;7393970;19;20140;-89
2023/04/20 19:23:34;;;;;;;0.30;0.30;;;;;;;;;;7392250;19;20541;-88
2023/04/20 19:26:01;;;;;;;0.30;0.30;;;;;;;;;;7393994;19;20134;-88
2023/04/20 19:28:27;;;;;;;0.30;0.30;;;;;;;;;;7391548;19;20149;-89
2023/04/20 19:30:55;;;;;;;0.20;0.20;;;;;;;;;;7390005;19;20152;-89
2023/04/20 19:33:21;;;;;;;0.30;0.30;;;;;;;;;;7388859;19;20845;-87
2023/04/20 19:35:49;;;;;;;0.30;0.30;;;;;;;;;;7390211;19;20125;-88
2023/04/20 19:38:20;;;;;;;0.30;0.30;;;;;;;;;;7393258;19;20126;-92
2023/04/20 19:40:50;;;;;;;0.40;0.40;;;;;;;;;;7394164;19;20133;-93
2023/04/20 19:43:17;;;;;;;0.30;0.30;;;;;;;;;;7391865;19;20149;-91
2023/04/20 19:45:47;;;;;;;2.20;2.00;;;;;;;;;;7396132;19;20133;-91
2023/04/20 19:48:14;;;;;;;0.40;0.40;;;;;;;;;;7413181;19;20148;-90
2023/04/20 19:50:40;;;;;;;1.60;1.50;;;;;;;;;;7401308;19;20137;-91
2023/04/20 19:53:07;;;;;;;0.30;0.30;;;;;;;;;;7389784;19;20148;-91
2023/04/20 19:55:34;;;;;;;0.30;0.30;;;;;;;;;;7386301;19;20154;-91
2023/04/20 19:58:00;;;;;;;0.30;0.30;;;;;;;;;;7387575;19;20136;-91
2023/04/20 20:00:27;;;;;;;0.30;0.30;;;;;;;;;;7388852;19;20160;-91
2023/04/20 20:02:54;;;;;;;0.30;0.30;;;;;;;;;;7386857;19;20192;-92
2023/04/20 20:05:21;;;;;;;0.30;0.30;;;;;;;;;;7385198;19;20141;-92
2023/04/20 20:07:47;;;;;;;0.30;0.30;;;;;;;;;;7389683;19;20129;-90
2023/04/20 20:10:14;;;;;;;0.30;0.30;;;;;;;;;;7388728;19;20125;-90
2023/04/20 20:12:40;;;;;;;0.30;0.30;;;;;;;;;;7388966;19;20153;-92
2023/04/20 20:15:07;;;;;;;0.40;0.40;;;;;;;;;;7392050;19;20701;-91
2023/04/20 20:17:34;;;;;;;0.30;0.30;;;;;;;;;;7388935;19;20141;-90
2023/04/20 20:20:00;;;;;;;0.30;0.30;;;;;;;;;;7391600;19;20144;-91
2023/04/20 20:22:27;;;;;;;0.20;0.20;;;;;;;;;;7388240;19;20202;-91
2023/04/20 20:24:54;;;;;;;0.30;0.30;;;;;;;;;;7390891;19;20129;-91
2023/04/20 20:27:20;;;;;;;0.30;0.30;;;;;;;;;;7391152;19;20125;-90
2023/04/20 20:29:47;;;;;;;0.30;0.30;;;;;;;;;;7386846;19;20133;-93
2023/04/20 20:32:14;;;;;;;0.30;0.30;;;;;;;;;;7389829;19;20149;-92
2023/04/20 20:34:41;;;;;;;0.40;0.40;;;;;;;;;;7388923;19;20174;-91
2023/04/20 20:37:11;;;;;;;0.60;0.60;;;;;;;;;;7389812;19;20494;-91
2023/04/20 20:39:37;;;;;;;0.40;0.40;;;;;;;;;;7389491;19;20141;-91
2023/04/20 20:42:04;;;;;;;0.40;0.40;;;;;;;;;;7388154;19;20625;-92
2023/04/20 20:44:37;;;;;;;0.30;0.30;;;;;;;;;;7389285;19;20144;-92
2023/04/20 20:47:05;;;;;;;0.40;0.40;;;;;;;;;;7389919;19;20472;-92
2023/04/20 20:49:32;;;;;;;0.73;0.73;;;;;;;;;;7386836;19;20141;-92
2023/04/20 20:52:00;;;;;;;0.40;0.40;;;;;;;;;;7388245;19;20168;-92
2023/04/20 20:54:28;;;;;;;0.40;0.40;;;;;;;;;;7386181;19;20140;-92
2023/04/20 20:56:56;;;;;;;0.40;0.40;;;;;;;;;;7387321;19;20140;-91
2023/04/20 20:59:23;;;;;;;0.40;0.40;;;;;;;;;;7388909;19;20497;-93
2023/04/20 21:01:49;;;;;;;0.60;0.60;;;;;;;;;;7386726;19;20140;-92
2023/04/20 21:04:16;;;;;;;0.40;0.40;;;;;;;;;;7387043;19;20141;-93
2023/04/20 21:06:43;;;;;;;0.37;0.37;;;;;;;;;;7386739;19;20145;-91
2023/04/20 21:09:09;;;;;;;0.70;0.70;;;;;;;;;;7387395;19;20170;-92
2023/04/20 21:11:36;;;;;;;0.30;0.30;;;;;;;;;;7389580;19;20133;-91
2023/04/20 21:14:03;;;;;;;0.30;0.30;;;;;;;;;;7387502;19;20141;-92
2023/04/20 21:16:29;;;;;;;0.53;0.53;;;;;;;;;;7386383;19;20145;-91
2023/04/20 21:18:56;;;;;;;0.40;0.40;;;;;;;;;;7385596;19;20140;-91
2023/04/20 21:21:22;;;;;;;0.40;0.40;;;;;;;;;;7385297;19;20165;-91
2023/04/20 21:23:49;;;;;;;0.40;0.40;;;;;;;;;;7386500;19;20516;-92
2023/04/20 21:26:16;;;;;;;0.63;0.63;;;;;;;;;;7386806;19;20593;-92
2023/04/20 21:28:42;;;;;;;0.50;0.50;;;;;;;;;;7388322;19;20141;-92
2023/04/20 21:31:09;;;;;;;0.30;0.30;;;;;;;;;;7388986;19;20157;-92
2023/04/20 21:33:36;;;;;;;0.40;0.40;;;;;;;;;;7387810;19;20157;-91
2023/04/20 21:36:03;;;;;;;0.30;0.30;;;;;;;;;;7389276;19;20876;-92
2023/04/20 21:38:29;;;;;;;0.40;0.40;;;;;;;;;;7389065;19;20162;-92
2023/04/20 21:40:56;;;;;;;0.43;0.43;;;;;;;;;;7388581;19;20617;-91
2023/04/20 21:43:22;;;;;;;0.30;0.30;;;;;;;;;;7388334;19;20222;-91
2023/04/20 21:45:50;;;;;;;0.40;0.40;;;;;;;;;;7389114;19;20161;-94
2023/04/20 21:48:18;;;;;;;0.40;0.40;;;;;;;;;;7399479;19;20137;-92
2023/04/20 21:50:45;;;;;;;0.40;0.40;;;;;;;;;;7396305;19;20165;-92
2023/04/20 21:53:11;;;;;;;0.27;0.27;;;;;;;;;;7387198;19;20172;-91
2023/04/20 21:55:38;;;;;;;0.23;0.23;;;;;;;;;;7386894;19;20626;-92
2023/04/20 21:58:04;;;;;;;0.50;0.50;;;;;;;;;;7388134;19;20171;-92
2023/04/20 22:00:31;;;;;;;0.30;0.30;;;;;;;;;;7387270;19;20157;-92
2023/04/20 22:02:58;;;;;;;0.57;0.57;;;;;;;;;;7381969;19;20149;-90
2023/04/20 22:05:25;;;;;;;0.60;0.60;;;;;;;;;;7386145;19;20126;-92
2023/04/20 22:07:52;;;;;;;0.40;0.40;;;;;;;;;;7386292;19;20129;-92
2023/04/20 22:10:19;;;;;;;0.33;0.33;;;;;;;;;;7384098;19;20133;-92
2023/04/20 22:12:45;;;;;;;0.50;0.50;;;;;;;;;;7389591;19;20165;-92
2023/04/20 22:15:13;;;;;;;0.30;0.30;;;;;;;;;;7395175;19;20631;-92
2023/04/20 22:17:40;;;;;;;0.40;0.40;;;;;;;;;;7394740;19;20145;-92
2023/04/20 22:20:09;;;;;;;0.50;0.50;;;;;;;;;;7395233;19;20137;-92
2023/04/20 22:22:36;;;;;;;0.30;0.30;;;;;;;;;;7393721;19;20145;-92
2023/04/20 22:25:04;;;;;;;1.80;0.80;;;;;;;;;;7392316;19;20502;-92
2023/04/20 22:27:31;;;;;;;1.13;0.90;;;;;;;;;;7394894;19;20516;-92
2023/04/20 22:29:58;;;;;;;0.40;0.40;;;;;;;;;;7391789;19;20125;-91
2023/04/20 22:32:25;;;;;;;0.57;0.57;;;;;;;;;;7390767;19;20172;-92
2023/04/20 22:34:51;;;;;;;0.30;0.30;;;;;;;;;;7390215;19;20498;-92
2023/04/20 22:37:18;;;;;;;0.40;0.40;;;;;;;;;;7394051;19;20137;-91
2023/04/20 22:39:44;;;;;;;0.40;0.40;;;;;;;;;;7391922;19;20164;-92
2023/04/20 22:42:11;;;;;;;0.60;0.57;;;;;;;;;;7393526;19;20129;-91
2023/04/20 22:44:37;;;;;;;1.40;0.73;;;;;;;;;;7392653;19;20130;-92
2023/04/20 22:47:05;;;;;;;0.30;0.30;;;;;;;;;;7391485;19;20609;-92
2023/04/20 22:49:31;;;;;;;0.40;0.40;;;;;;;;;;7392247;19;20133;-90
2023/04/20 22:51:58;;;;;;;0.60;0.60;;;;;;;;;;7392528;19;20137;-92
2023/04/20 22:54:25;;;;;;;0.50;0.50;;;;;;;;;;7391364;19;20184;-92
2023/04/20 22:56:52;;;;;;;1.07;0.90;;;;;;;;;;7391571;19;20133;-92
2023/04/20 22:59:19;;;;;;;1.07;1.03;;;;;;;;;;7394507;19;20148;-92
2023/04/20 23:01:45;;;;;;;0.60;0.60;;;;;;;;;;7391110;19;20212;-90
2023/04/20 23:04:12;;;;;;;0.60;0.60;;;;;;;;;;7391281;19;20149;-92
2023/04/20 23:06:42;;;;;;;0.57;0.57;;;;;;;;;;7392937;19;20133;-92
2023/04/20 23:09:11;;;;;;;0.43;0.43;;;;;;;;;;7392357;19;20149;-91
2023/04/20 23:11:38;;;;;;;2.47;0.63;;;;;;;;;;7395191;19;20133;-93
2023/04/20 23:14:06;;;;;;;0.30;0.30;;;;;;;;;;7389894;19;20173;-91
2023/04/20 23:16:33;;;;;;;0.30;0.30;;;;;;;;;;7393004;19;20145;-92
2023/04/20 23:19:00;;;;;;;0.30;0.30;;;;;;;;;;7391683;19;20125;-90
2023/04/20 23:21:27;;;;;;;0.30;0.30;;;;;;;;;;7393881;19;20154;-90
2023/04/20 23:23:57;;;;;;;0.30;0.30;;;;;;;;;;7387121;19;20145;-89
2023/04/20 23:26:24;;;;;;;0.30;0.30;;;;;;;;;;7390192;19;20132;-92
2023/04/20 23:28:51;;;;;;;0.30;0.30;;;;;;;;;;7391440;19;20141;-90
2023/04/20 23:31:18;;;;;;;0.30;0.30;;;;;;;;;;7391862;19;20157;-92
2023/04/20 23:33:45;;;;;;;3.70;1.63;;;;;;;;;;7397503;19;20141;-92
2023/04/20 23:36:12;;;;;;;0.30;0.30;;;;;;;;;;7426597;19;20121;-89
2023/04/20 23:38:39;;;;;;;0.97;0.83;;;;;;;;;;7426797;19;20137;-91
2023/04/20 23:41:09;;;;;;;0.30;0.30;;;;;;;;;;7426199;19;20129;-91
2023/04/20 23:43:37;;;;;;;0.30;0.30;;;;;;;;;;7424948;19;20141;-91
2023/04/20 23:46:05;;;;;;;0.30;0.30;;;;;;;;;;7424817;19;20156;-89
2023/04/20 23:48:32;;;;;;;0.30;0.30;;;;;;;;;;7423160;19;20121;-91
2023/04/20 23:51:00;;;;;;;0.23;0.23;;;;;;;;;;7420513;19;20161;-92
2023/04/20 23:53:26;;;;;;;0.30;0.30;;;;;;;;;;7421293;19;20152;-91
2023/04/20 23:55:56;;;;;;;0.30;0.30;;;;;;;;;;7412636;19;20168;-92
2023/04/20 23:58:26;;;;;;;0.30;0.30;;;;;;;;;;7389658;19;20137;-92
